Time;durP1;ratioP1;P1;durP2;ratioP2;P2;SDS_P1;SDS_P2;PMS_P1;PMS_P2;Temp;Humidity;BMP_temperature;BMP_pressure;BME280_temperature;BME280_humidity;BME280_pressure;Samples;Min_cycle;Max_cycle;Signal;HPM_P1;HPM_P2
2023/07/07 00:02:05;;;;;;;2.67;2.00;;;14.10;99.90;;;;;;5036175;28;20212;-86
2023/07/07 00:04:31;;;;;;;4.53;2.00;;;14.10;99.90;;;;;;5018773;28;20248;-87
2023/07/07 00:06:57;;;;;;;2.67;1.98;;;14.10;99.90;;;;;;5018763;28;20178;-89
2023/07/07 00:09:25;;;;;;;4.95;2.47;;;14.20;99.90;;;;;;5018637;28;20202;-87
2023/07/07 00:11:52;;;;;;;4.70;2.35;;;14.10;99.90;;;;;;5018872;28;20261;-87
2023/07/07 00:14:18;;;;;;;4.10;2.20;;;14.00;99.90;;;;;;5018969;28;20240;-89
2023/07/07 00:16:44;;;;;;;3.80;2.28;;;13.90;99.90;;;;;;5019061;28;20175;-88
2023/07/07 00:19:10;;;;;;;3.65;2.00;;;13.90;99.90;;;;;;5036386;28;20244;-88
2023/07/07 00:21:42;;;;;;;6.43;2.67;;;13.90;99.90;;;;;;5018650;28;20210;-88
2023/07/07 00:24:08;;;;;;;5.78;2.50;;;13.80;99.90;;;;;;5018993;28;20175;-89
2023/07/07 00:26:34;;;;;;;4.10;2.00;;;13.80;99.90;;;;;;5025492;28;20190;-89
2023/07/07 00:29:05;;;;;;;3.20;1.90;;;13.90;99.90;;;;;;4998931;28;20270;-88
2023/07/07 00:31:31;;;;;;;2.63;1.95;;;13.90;99.90;;;;;;4998532;28;20202;-90
2023/07/07 00:33:57;;;;;;;4.32;2.30;;;14.00;99.90;;;;;;4998583;28;20213;-86
2023/07/07 00:36:23;;;;;;;6.82;2.25;;;14.00;99.90;;;;;;4998764;28;20187;-88
2023/07/07 00:38:51;;;;;;;4.30;2.10;;;13.90;99.90;;;;;;4998829;28;20175;-87
2023/07/07 00:41:17;;;;;;;7.45;2.30;;;13.90;99.90;;;;;;4998383;28;20218;-87
2023/07/07 00:44:08;;;;;;;4.15;2.33;;;13.90;99.90;;;;;;5016012;28;20179;-87
2023/07/07 00:46:37;;;;;;;3.38;2.20;;;13.90;99.90;;;;;;4998133;28;20298;-86
2023/07/07 00:49:08;;;;;;;5.47;2.25;;;13.90;99.90;;;;;;5034421;28;20191;-88
2023/07/07 00:51:39;;;;;;;2.33;1.92;;;13.80;99.90;;;;;;5035811;28;20590;-88
2023/07/07 00:54:11;;;;;;;5.25;1.88;;;13.80;99.90;;;;;;5035350;28;20174;-87
2023/07/07 00:56:41;;;;;;;2.97;2.20;;;13.80;99.90;;;;;;5018142;28;20174;-87
2023/07/07 00:59:17;;;;;;;4.90;2.42;;;13.80;99.90;;;;;;5018210;28;20167;-88
2023/07/07 01:01:43;;;;;;;3.17;2.40;;;13.90;99.90;;;;;;5035392;28;20205;-89
2023/07/07 01:04:16;;;;;;;4.07;2.10;;;13.90;99.90;;;;;;5017579;28;20170;-88
2023/07/07 01:06:47;;;;;;;5.93;1.73;;;13.70;99.90;;;;;;5017741;28;20179;-86
2023/07/07 01:09:13;;;;;;;3.20;1.80;;;13.60;99.90;;;;;;5017716;28;20236;-87
2023/07/07 01:11:39;;;;;;;3.50;2.15;;;13.60;99.90;;;;;;5017573;28;20606;-88
2023/07/07 01:14:13;;;;;;;3.10;1.98;;;13.50;99.90;;;;;;5017588;28;20198;-88
2023/07/07 01:16:54;;;;;;;3.33;2.17;;;13.40;99.90;;;;;;5018171;28;20170;-86
2023/07/07 01:19:45;;;;;;;4.32;2.35;;;13.30;99.90;;;;;;4997580;28;20203;-87
2023/07/07 01:22:39;;;;;;;3.47;2.03;;;13.40;99.90;;;;;;4997698;28;20611;-87
2023/07/07 01:25:12;;;;;;;2.83;2.10;;;13.50;99.90;;;;;;4997483;28;20179;-87
2023/07/07 01:27:49;;;;;;;2.47;2.10;;;13.40;99.90;;;;;;4997798;28;20171;-87
2023/07/07 01:30:41;;;;;;;2.72;2.10;;;13.40;99.90;;;;;;5014941;28;20199;-87
2023/07/07 01:33:11;;;;;;;3.38;2.20;;;13.30;99.90;;;;;;5014986;28;20167;-87
2023/07/07 01:35:37;;;;;;;6.38;2.53;;;13.20;99.90;;;;;;4997662;28;20190;-87
2023/07/07 01:38:04;;;;;;;5.65;2.40;;;13.10;99.90;;;;;;4997347;28;20179;-87
2023/07/07 01:40:44;;;;;;;5.50;2.25;;;13.10;99.90;;;;;;4997382;28;20229;-86
2023/07/07 01:43:17;;;;;;;5.00;2.28;;;13.10;99.90;;;;;;4997449;28;20175;-87
2023/07/07 01:46:16;;;;;;;4.30;2.08;;;13.20;99.90;;;;;;4997513;28;20175;-87
2023/07/07 01:49:00;;;;;;;2.88;2.38;;;13.10;99.90;;;;;;4947220;28;20230;-88
2023/07/07 01:51:30;;;;;;;3.25;2.35;;;13.10;99.90;;;;;;4997625;28;20179;-88
2023/07/07 01:53:58;;;;;;;3.55;2.30;;;13.10;99.90;;;;;;5014876;28;20206;-86
2023/07/07 01:56:27;;;;;;;3.45;2.28;;;13.10;99.90;;;;;;5014819;28;20180;-87
2023/07/07 01:58:53;;;;;;;3.30;2.13;;;13.20;99.90;;;;;;4997233;28;20261;-87
2023/07/07 02:01:20;;;;;;;3.55;2.40;;;13.10;99.90;;;;;;4997187;28;20353;-87
2023/07/07 02:03:45;;;;;;;5.00;2.10;;;13.10;99.90;;;;;;5014365;28;20171;-88
2023/07/07 02:06:11;;;;;;;2.80;2.20;;;13.00;99.90;;;;;;4996825;28;20194;-86
2023/07/07 02:08:37;;;;;;;3.28;2.20;;;13.00;99.90;;;;;;4996906;28;20175;-87
2023/07/07 02:11:03;;;;;;;4.10;1.95;;;13.00;99.90;;;;;;5014445;28;20178;-87
2023/07/07 02:13:28;;;;;;;4.28;2.40;;;13.00;99.90;;;;;;4996647;28;20172;-86
2023/07/07 02:15:54;;;;;;;5.38;2.10;;;13.00;99.90;;;;;;4997042;28;20548;-87
2023/07/07 02:18:20;;;;;;;2.75;1.95;;;13.00;99.90;;;;;;5009307;28;20621;-86
2023/07/07 02:20:46;;;;;;;3.25;2.05;;;13.00;99.90;;;;;;5016302;28;20308;-86
2023/07/07 02:23:11;;;;;;;3.90;2.42;;;12.80;99.90;;;;;;5034150;28;20247;-86
2023/07/07 02:25:37;;;;;;;5.43;2.00;;;12.80;99.90;;;;;;5034114;28;20171;-86
2023/07/07 02:28:03;;;;;;;5.60;2.08;;;12.80;99.90;;;;;;5016359;28;20181;-87
2023/07/07 02:30:29;;;;;;;3.03;2.10;;;12.90;99.90;;;;;;5015985;28;20205;-86
2023/07/07 02:32:55;;;;;;;3.05;2.00;;;12.90;99.90;;;;;;5015540;28;20205;-86
2023/07/07 02:35:20;;;;;;;8.27;2.10;;;12.80;99.90;;;;;;5015874;28;20562;-87
2023/07/07 02:37:46;;;;;;;4.03;2.08;;;12.70;99.90;;;;;;5033890;28;20190;-87
2023/07/07 02:40:13;;;;;;;2.03;1.80;;;12.70;99.90;;;;;;5016182;28;20175;-86
2023/07/07 02:42:38;;;;;;;4.85;2.22;;;12.70;99.90;;;;;;5016050;28;20759;-86
2023/07/07 02:45:05;;;;;;;2.72;2.40;;;12.70;99.90;;;;;;5016366;28;20206;-87
2023/07/07 02:47:30;;;;;;;2.75;2.13;;;12.50;99.90;;;;;;5012368;28;20242;-86
2023/07/07 02:49:57;;;;;;;4.95;2.00;;;12.50;99.90;;;;;;5014314;28;20179;-88
2023/07/07 02:52:23;;;;;;;5.85;2.20;;;12.50;99.90;;;;;;5018010;28;20274;-88
2023/07/07 02:54:49;;;;;;;3.40;1.95;;;12.40;99.90;;;;;;5018209;28;20203;-90
2023/07/07 02:57:14;;;;;;;6.95;2.28;;;12.40;99.90;;;;;;5024179;28;20175;-88
2023/07/07 02:59:40;;;;;;;3.35;2.08;;;12.40;99.90;;;;;;5023474;28;20180;-89
2023/07/07 03:02:06;;;;;;;5.07;2.10;;;12.40;99.90;;;;;;5023584;28;20203;-91
2023/07/07 03:04:32;;;;;;;2.97;2.08;;;12.40;99.90;;;;;;5024218;28;20644;-89
2023/07/07 03:06:58;;;;;;;2.63;2.03;;;12.40;99.90;;;;;;5021472;28;20206;-90
2023/07/07 03:09:23;;;;;;;3.53;2.35;;;12.40;99.90;;;;;;5017948;28;20171;-93
2023/07/07 03:11:50;;;;;;;6.03;2.15;;;12.40;99.90;;;;;;5016847;28;20241;-95
2023/07/07 03:14:19;;;;;;;3.72;2.05;;;12.40;99.90;;;;;;5017013;28;20168;-89
2023/07/07 03:16:51;;;;;;;3.97;2.20;;;12.40;99.90;;;;;;5017822;28;20562;-90
2023/07/07 03:19:17;;;;;;;4.82;2.00;;;12.50;99.90;;;;;;4998303;28;20180;-89
2023/07/07 03:21:44;;;;;;;5.88;2.22;;;12.50;99.90;;;;;;4997289;28;20234;-90
2023/07/07 03:24:10;;;;;;;5.82;2.35;;;12.50;99.90;;;;;;4996976;28;20230;-89
2023/07/07 03:26:36;;;;;;;4.20;2.10;;;12.40;99.90;;;;;;4998324;28;20176;-91
2023/07/07 03:29:02;;;;;;;6.30;2.20;;;12.50;99.90;;;;;;4998406;28;20184;-87
2023/07/07 03:31:30;;;;;;;2.45;1.90;;;12.50;99.90;;;;;;4998286;28;20176;-86
2023/07/07 03:33:59;;;;;;;3.40;2.03;;;12.40;99.90;;;;;;4997254;28;20251;-88
2023/07/07 03:36:28;;;;;;;2.65;2.15;;;12.40;99.90;;;;;;4999512;28;20176;-85
2023/07/07 03:38:55;;;;;;;4.82;2.10;;;12.30;99.90;;;;;;4996790;28;20214;-86
2023/07/07 03:41:27;;;;;;;2.58;2.38;;;12.30;99.90;;;;;;4997766;28;20214;-90
2023/07/07 03:43:55;;;;;;;5.07;2.38;;;12.30;99.90;;;;;;4996653;28;20227;-89
2023/07/07 03:46:23;;;;;;;4.55;2.60;;;12.30;99.90;;;;;;4996961;28;20556;-89
2023/07/07 03:48:50;;;;;;;4.32;2.22;;;12.30;99.90;;;;;;5032791;28;20222;-94
2023/07/07 03:51:17;;;;;;;4.63;2.20;;;12.30;99.90;;;;;;5019625;28;20185;-88
2023/07/07 03:53:44;;;;;;;4.93;2.40;;;12.40;99.90;;;;;;5019707;28;20205;-92
2023/07/07 03:56:10;;;;;;;4.93;2.28;;;12.40;99.90;;;;;;5019668;28;20178;-93
2023/07/07 03:58:36;;;;;;;2.15;1.95;;;12.40;99.90;;;;;;5019450;28;20174;-90
2023/07/07 04:01:07;;;;;;;7.00;2.25;;;12.40;99.90;;;;;;5036996;28;20256;-93
2023/07/07 04:03:33;;;;;;;5.65;2.30;;;12.50;99.90;;;;;;5018919;28;20261;-90
2023/07/07 04:06:00;;;;;;;4.70;2.20;;;12.60;99.90;;;;;;5019974;28;20229;-94
2023/07/07 04:08:26;;;;;;;5.80;1.92;;;12.60;99.90;;;;;;5020270;28;20183;-91
2023/07/07 04:11:10;;;;;;;4.57;2.10;;;12.60;99.90;;;;;;5019233;28;20578;-91
2023/07/07 04:13:38;;;;;;;3.63;2.35;;;12.70;99.90;;;;;;5036934;28;20221;-94
2023/07/07 04:16:15;;;;;;;2.78;1.92;;;12.70;99.90;;;;;;5037866;28;20187;-92
2023/07/07 04:18:43;;;;;;;5.43;2.20;;;12.80;99.90;;;;;;5018858;28;20277;-91
2023/07/07 04:21:12;;;;;;;5.45;2.28;;;12.80;99.90;;;;;;5018856;28;20221;-95
2023/07/07 04:23:42;;;;;;;4.50;2.17;;;13.00;99.90;;;;;;5037011;28;20167;-96
2023/07/07 04:26:09;;;;;;;4.07;2.20;;;13.00;99.90;;;;;;5019297;28;20178;-95
2023/07/07 04:28:36;;;;;;;7.93;2.30;;;13.00;99.90;;;;;;5018794;28;20174;-89
2023/07/07 04:31:03;;;;;;;3.33;2.20;;;13.00;99.90;;;;;;5018594;28;20184;-87
2023/07/07 04:33:30;;;;;;;2.65;2.05;;;13.00;99.90;;;;;;5017855;28;20639;-88
2023/07/07 04:35:58;;;;;;;4.40;2.28;;;13.00;99.90;;;;;;5018124;28;20182;-88
2023/07/07 04:38:30;;;;;;;3.30;2.00;;;13.10;99.90;;;;;;5018509;28;20197;-87
2023/07/07 04:41:24;;;;;;;3.53;2.20;;;13.10;99.90;;;;;;5018016;28;20206;-87
2023/07/07 04:43:52;;;;;;;6.00;2.20;;;13.20;99.90;;;;;;5015367;28;20197;-87
2023/07/07 04:46:33;;;;;;;3.88;2.30;;;13.30;99.90;;;;;;5017932;28;20189;-87
2023/07/07 04:48:59;;;;;;;3.45;1.80;;;13.50;99.90;;;;;;5017754;28;20526;-87
2023/07/07 04:51:25;;;;;;;4.53;2.15;;;13.70;99.90;;;;;;5017704;28;20228;-87
2023/07/07 04:53:51;;;;;;;2.72;1.95;;;13.90;99.90;;;;;;5035533;28;20205;-87
2023/07/07 04:56:20;;;;;;;3.97;1.90;;;14.20;99.90;;;;;;5035794;28;20174;-87
2023/07/07 04:58:50;;;;;;;3.35;2.10;;;14.40;99.90;;;;;;5017911;28;20220;-88
2023/07/07 05:01:22;;;;;;;6.18;2.20;;;14.60;99.90;;;;;;5017894;28;20635;-88
2023/07/07 05:03:54;;;;;;;6.38;2.03;;;14.70;99.90;;;;;;5018108;28;20176;-87
2023/07/07 05:06:21;;;;;;;6.22;2.85;;;14.80;99.90;;;;;;5017795;28;20228;-87
2023/07/07 05:08:47;;;;;;;4.13;1.70;;;14.90;99.90;;;;;;5017567;28;20178;-87
2023/07/07 05:11:15;;;;;;;4.38;2.03;;;15.00;99.90;;;;;;5035416;28;20170;-87
2023/07/07 05:13:41;;;;;;;3.88;1.98;;;15.10;99.90;;;;;;5016839;28;20182;-86
2023/07/07 05:16:13;;;;;;;6.78;2.15;;;15.10;99.90;;;;;;5017473;28;20212;-88
2023/07/07 05:18:39;;;;;;;5.75;2.45;;;15.20;99.90;;;;;;5017048;28;20178;-88
2023/07/07 05:21:08;;;;;;;3.85;1.95;;;15.20;99.90;;;;;;5017425;28;20206;-87
2023/07/07 05:23:35;;;;;;;3.92;2.10;;;15.20;99.90;;;;;;5017197;28;20178;-86
2023/07/07 05:26:00;;;;;;;3.90;2.10;;;15.20;99.90;;;;;;5034851;28;20221;-89
2023/07/07 05:28:26;;;;;;;4.90;2.00;;;15.30;99.90;;;;;;5034252;28;20209;-87
2023/07/07 05:30:53;;;;;;;3.63;2.20;;;15.30;99.90;;;;;;5017102;28;20616;-87
2023/07/07 05:33:21;;;;;;;3.33;1.90;;;15.40;99.90;;;;;;5034485;28;20605;-88
2023/07/07 05:35:55;;;;;;;5.28;2.10;;;15.50;99.90;;;;;;5017161;28;20194;-87
2023/07/07 05:38:24;;;;;;;2.75;1.85;;;15.60;99.90;;;;;;5034902;28;20158;-88
2023/07/07 05:40:52;;;;;;;4.85;1.95;;;15.70;99.90;;;;;;5017013;28;20206;-88
2023/07/07 05:43:20;;;;;;;3.45;1.98;;;15.80;99.90;;;;;;5017189;28;20173;-88
2023/07/07 05:45:45;;;;;;;2.97;1.85;;;15.90;99.90;;;;;;5017238;28;20186;-86
2023/07/07 05:48:12;;;;;;;2.35;2.00;;;16.00;99.90;;;;;;5016529;28;20311;-87
2023/07/07 05:50:39;;;;;;;3.50;1.95;;;16.00;99.90;;;;;;5016737;28;20181;-88
2023/07/07 05:53:05;;;;;;;2.72;1.65;;;16.10;99.90;;;;;;5016927;28;20188;-88
2023/07/07 05:55:33;;;;;;;3.38;1.98;;;16.20;99.90;;;;;;5034644;28;20174;-90
2023/07/07 05:58:01;;;;;;;3.13;1.88;;;16.20;99.90;;;;;;5034871;28;20178;-88
2023/07/07 06:00:28;;;;;;;5.18;1.75;;;16.30;99.90;;;;;;5016621;28;20233;-87
2023/07/07 06:02:55;;;;;;;2.88;1.90;;;16.40;99.90;;;;;;5013406;28;20209;-86
2023/07/07 06:05:21;;;;;;;3.75;1.85;;;16.40;99.90;;;;;;5015618;28;20524;-85
2023/07/07 06:07:47;;;;;;;5.50;2.00;;;16.50;99.90;;;;;;5016421;28;20277;-88
2023/07/07 06:10:13;;;;;;;5.60;1.42;;;16.50;99.90;;;;;;5034298;28;20202;-86
2023/07/07 06:12:39;;;;;;;2.65;1.90;;;16.60;99.90;;;;;;5016644;28;20189;-87
2023/07/07 06:15:06;;;;;;;2.58;1.70;;;16.70;99.90;;;;;;5016476;28;20182;-87
2023/07/07 06:17:32;;;;;;;6.82;1.75;;;16.90;99.90;;;;;;5016384;28;20197;-87
2023/07/07 06:19:58;;;;;;;6.85;2.33;;;17.00;99.90;;;;;;5015890;28;20186;-86
2023/07/07 06:22:25;;;;;;;2.22;1.73;;;17.20;99.90;;;;;;5016223;28;20249;-86
2023/07/07 06:24:52;;;;;;;5.53;1.60;;;17.30;99.90;;;;;;5034651;28;20162;-87
2023/07/07 06:27:19;;;;;;;3.25;1.45;;;17.40;99.90;;;;;;5020309;28;20271;-87
2023/07/07 06:29:44;;;;;;;4.97;1.80;;;17.50;99.90;;;;;;5020174;28;20224;-88
2023/07/07 06:32:12;;;;;;;2.80;1.40;;;17.60;99.90;;;;;;5020370;28;20223;-87
2023/07/07 06:34:38;;;;;;;4.72;2.05;;;17.60;99.90;;;;;;5019885;28;20520;-87
2023/07/07 06:37:04;;;;;;;2.03;1.42;;;17.80;99.90;;;;;;5020196;28;20182;-86
2023/07/07 06:39:30;;;;;;;3.45;1.40;;;17.90;99.90;;;;;;5020077;28;20190;-86
2023/07/07 06:41:56;;;;;;;4.57;1.25;;;18.00;99.90;;;;;;5037531;28;20206;-85
2023/07/07 06:44:22;;;;;;;2.65;1.30;;;18.10;99.90;;;;;;5037684;28;20254;-87
2023/07/07 06:46:48;;;;;;;2.00;1.40;;;18.20;99.90;;;;;;5037591;28;20664;-88
2023/07/07 06:49:14;;;;;;;4.38;1.75;;;18.30;99.90;;;;;;5019707;28;20680;-89
2023/07/07 06:51:41;;;;;;;5.95;1.70;;;18.40;99.90;;;;;;5020399;28;20257;-87
2023/07/07 06:54:07;;;;;;;2.08;1.30;;;18.50;99.90;;;;;;5038166;28;20170;-88
2023/07/07 06:56:33;;;;;;;3.67;1.48;;;18.60;99.90;;;;;;5019845;28;20205;-87
2023/07/07 06:58:58;;;;;;;2.72;1.50;;;18.80;99.90;;;;;;5019878;28;20175;-87
2023/07/07 07:01:24;;;;;;;2.38;1.42;;;19.00;99.90;;;;;;5020034;28;20308;-87
2023/07/07 07:03:50;;;;;;;1.60;1.30;;;19.20;99.90;;;;;;5019534;28;20170;-86
2023/07/07 07:06:16;;;;;;;2.33;1.50;;;19.30;99.90;;;;;;5019949;28;20174;-86
2023/07/07 07:08:41;;;;;;;2.85;1.50;;;19.50;99.90;;;;;;5019788;28;20182;-86
2023/07/07 07:11:07;;;;;;;3.90;1.67;;;19.70;99.90;;;;;;5037315;28;20519;-85
2023/07/07 07:13:33;;;;;;;3.50;1.20;;;19.90;99.90;;;;;;5037189;28;20167;-86
2023/07/07 07:15:59;;;;;;;3.55;1.33;;;20.10;99.90;;;;;;5019857;28;20193;-84
2023/07/07 07:18:25;;;;;;;1.80;1.17;;;20.30;99.90;;;;;;5019150;28;20182;-85
2023/07/07 07:20:54;;;;;;;3.58;1.42;;;20.40;99.90;;;;;;5019516;28;20210;-87
2023/07/07 07:23:25;;;;;;;2.25;1.48;;;20.50;99.90;;;;;;5019539;28;20747;-87
2023/07/07 07:25:50;;;;;;;2.55;1.30;;;20.70;99.90;;;;;;5037329;28;20173;-85
2023/07/07 07:28:16;;;;;;;3.97;1.30;;;20.90;99.90;;;;;;5019394;28;20272;-87
2023/07/07 07:30:42;;;;;;;3.83;1.33;;;21.00;99.90;;;;;;5019211;28;20266;-88
2023/07/07 07:33:18;;;;;;;2.13;1.25;;;21.20;99.90;;;;;;5019123;28;20182;-87
2023/07/07 07:35:44;;;;;;;3.38;1.38;;;21.40;99.90;;;;;;5018570;28;20621;-87
2023/07/07 07:38:10;;;;;;;4.20;1.38;;;21.50;99.90;;;;;;5036843;28;20162;-86
2023/07/07 07:40:35;;;;;;;1.58;1.10;;;21.60;99.90;;;;;;5018840;28;20548;-84
2023/07/07 07:43:01;;;;;;;2.95;1.40;;;21.70;99.90;;;;;;5036544;28;20261;-87
2023/07/07 07:45:27;;;;;;;2.92;1.40;;;21.80;99.90;;;;;;5018836;28;20181;-85
2023/07/07 07:47:53;;;;;;;1.85;1.40;;;21.90;99.70;;;;;;5018399;28;20241;-84
2023/07/07 07:50:21;;;;;;;4.68;1.67;;;22.00;99.90;;;;;;5036264;28;20175;-88
2023/07/07 07:52:49;;;;;;;1.48;1.15;;;22.10;99.90;;;;;;5018776;28;20178;-87
2023/07/07 07:55:16;;;;;;;3.67;1.33;;;22.30;99.90;;;;;;5018555;28;20185;-85
2023/07/07 07:57:43;;;;;;;1.95;1.13;;;22.40;99.50;;;;;;5036131;28;20190;-88
2023/07/07 08:00:09;;;;;;;1.67;1.30;;;22.40;99.30;;;;;;5036005;28;20228;-86
2023/07/07 08:02:36;;;;;;;2.08;1.40;;;22.50;99.50;;;;;;5018328;28;20210;-86
2023/07/07 08:05:02;;;;;;;2.13;1.45;;;22.50;97.70;;;;;;5018277;28;20229;-85
2023/07/07 08:07:30;;;;;;;3.92;1.45;;;22.60;98.50;;;;;;5035831;28;20174;-85
2023/07/07 08:09:56;;;;;;;3.05;1.35;;;22.60;98.40;;;;;;5018394;28;20636;-85
2023/07/07 08:12:21;;;;;;;2.13;1.48;;;22.70;99.30;;;;;;5018148;28;20182;-86
2023/07/07 08:14:47;;;;;;;1.95;1.13;;;22.70;98.10;;;;;;5018426;28;20285;-87
2023/07/07 08:17:14;;;;;;;2.97;1.20;;;22.80;97.20;;;;;;5018365;28;20256;-88
2023/07/07 08:19:41;;;;;;;3.25;1.40;;;22.90;96.00;;;;;;5035331;28;20201;-83
2023/07/07 08:22:17;;;;;;;2.42;1.23;;;23.00;99.30;;;;;;5018230;28;20317;-86
2023/07/07 08:24:47;;;;;;;3.90;1.27;;;23.20;97.80;;;;;;5018720;28;20178;-88
2023/07/07 08:27:17;;;;;;;3.55;1.50;;;23.30;95.40;;;;;;5036062;28;20183;-87
2023/07/07 08:29:43;;;;;;;1.92;1.40;;;23.40;95.30;;;;;;5018231;28;20198;-88
2023/07/07 08:32:12;;;;;;;4.65;1.50;;;23.50;96.20;;;;;;5035952;28;20210;-87
2023/07/07 08:34:39;;;;;;;3.28;1.30;;;23.70;96.00;;;;;;5035612;28;20171;-88
2023/07/07 08:37:05;;;;;;;1.77;1.13;;;23.80;94.80;;;;;;5018364;28;20252;-86
2023/07/07 08:39:31;;;;;;;1.70;1.17;;;23.90;95.30;;;;;;5017715;28;20278;-85
2023/07/07 08:42:03;;;;;;;1.88;1.08;;;24.00;95.20;;;;;;5021917;28;20212;-86
2023/07/07 08:44:33;;;;;;;5.32;1.50;;;24.00;94.40;;;;;;5022448;28;20186;-90
2023/07/07 08:47:26;;;;;;;2.13;1.25;;;24.00;94.00;;;;;;5027073;28;20237;-89
2023/07/07 08:50:08;;;;;;;1.35;1.05;;;24.10;93.40;;;;;;5028062;28;20175;-87
2023/07/07 08:52:52;;;;;;;1.83;0.85;;;24.20;93.40;;;;;;5018756;28;20791;-85
2023/07/07 08:55:30;;;;;;;2.03;1.08;;;24.20;92.80;;;;;;5017476;28;20190;-84
2023/07/07 08:58:18;;;;;;;7.15;1.85;;;24.20;94.10;;;;;;5022072;28;20186;-87
2023/07/07 09:01:27;;;;;;;4.90;1.77;;;24.20;92.80;;;;;;5019390;28;20207;-90
2023/07/07 09:04:14;;;;;;;2.05;1.20;;;24.20;93.00;;;;;;5012429;28;20210;-85
2023/07/07 09:06:58;;;;;;;2.97;1.10;;;24.20;93.50;;;;;;5022982;28;20166;-94
2023/07/07 09:09:42;;;;;;;3.28;1.52;;;24.30;92.70;;;;;;5021040;28;20190;-92
2023/07/07 09:12:27;;;;;;;2.15;1.27;;;24.30;93.10;;;;;;5031349;28;20171;-86
2023/07/07 09:14:57;;;;;;;3.13;1.20;;;24.50;91.80;;;;;;5025711;28;20190;-88
2023/07/07 09:17:33;;;;;;;3.15;1.63;;;24.60;90.80;;;;;;5028100;28;20606;-88
2023/07/07 09:20:01;;;;;;;3.65;1.17;;;24.60;91.30;;;;;;5015532;28;20183;-87
2023/07/07 09:22:33;;;;;;;1.83;1.00;;;24.70;91.10;;;;;;5016703;28;20620;-85
2023/07/07 09:25:18;;;;;;;3.60;1.30;;;24.70;92.60;;;;;;5015674;28;20176;-85
2023/07/07 09:27:57;;;;;;;2.78;1.40;;;24.70;90.60;;;;;;5017344;28;20194;-87
2023/07/07 09:30:34;;;;;;;3.33;1.50;;;24.90;88.90;;;;;;5014820;28;20171;-86
2023/07/07 09:33:00;;;;;;;2.47;1.20;;;24.90;91.10;;;;;;5014778;28;20266;-88
2023/07/07 09:35:34;;;;;;;5.57;1.20;;;24.90;91.70;;;;;;5015727;28;20195;-84
2023/07/07 09:38:00;;;;;;;2.67;1.25;;;24.90;91.20;;;;;;5015437;28;20606;-84
2023/07/07 09:40:51;;;;;;;1.67;1.17;;;25.00;92.20;;;;;;5014386;28;20197;-87
2023/07/07 09:43:25;;;;;;;5.63;1.40;;;25.00;90.80;;;;;;4993191;28;20190;-84
2023/07/07 09:46:21;;;;;;;2.90;1.17;;;25.00;90.50;;;;;;5015251;28;20201;-86
2023/07/07 09:48:58;;;;;;;3.90;1.20;;;25.00;91.30;;;;;;5013426;28;20241;-85
2023/07/07 09:51:42;;;;;;;4.55;1.50;;;25.00;90.90;;;;;;5014272;28;20183;-84
2023/07/07 09:54:13;;;;;;;3.47;1.35;;;25.00;91.20;;;;;;5014159;28;20193;-87
2023/07/07 09:57:06;;;;;;;5.10;1.50;;;25.10;91.40;;;;;;5013924;28;20306;-84
2023/07/07 09:59:36;;;;;;;2.63;1.40;;;25.00;87.90;;;;;;5002942;28;20210;-87
2023/07/07 10:02:08;;;;;;;3.50;1.30;;;25.00;89.00;;;;;;5015440;28;20207;-84
2023/07/07 10:04:34;;;;;;;3.22;1.10;;;25.10;92.00;;;;;;5016681;28;20328;-83
2023/07/07 10:07:06;;;;;;;3.45;1.52;;;25.20;90.70;;;;;;5015883;28;20179;-84
2023/07/07 10:09:32;;;;;;;2.30;1.58;;;25.30;90.70;;;;;;5014747;28;20241;-83
2023/07/07 10:11:59;;;;;;;3.05;1.20;;;25.40;92.60;;;;;;5014071;28;20183;-83
2023/07/07 10:14:28;;;;;;;4.63;1.40;;;25.50;90.20;;;;;;5014561;28;20576;-84
2023/07/07 10:16:59;;;;;;;1.83;1.20;;;25.60;88.10;;;;;;5015666;28;20262;-83
2023/07/07 10:19:27;;;;;;;4.32;1.27;;;25.50;90.30;;;;;;5015320;28;20237;-87
2023/07/07 10:21:53;;;;;;;3.40;1.15;;;25.60;90.40;;;;;;5015674;28;20311;-83
2023/07/07 10:24:20;;;;;;;4.97;1.38;;;25.50;90.30;;;;;;5014742;28;20622;-84
2023/07/07 10:26:47;;;;;;;3.25;1.45;;;25.60;91.30;;;;;;5015155;28;20195;-87
2023/07/07 10:29:26;;;;;;;1.95;1.10;;;25.70;90.00;;;;;;5014083;28;20178;-86
2023/07/07 10:31:52;;;;;;;2.20;1.08;;;25.80;84.40;;;;;;5013798;28;20193;-83
2023/07/07 10:34:21;;;;;;;2.80;1.45;;;25.90;84.60;;;;;;5013990;28;20178;-84
2023/07/07 10:36:46;;;;;;;2.20;1.15;;;25.90;84.50;;;;;;5013466;28;20214;-86
2023/07/07 10:39:12;;;;;;;2.25;1.33;;;26.00;83.70;;;;;;5013686;28;20225;-84
2023/07/07 10:41:38;;;;;;;2.47;1.30;;;26.10;86.00;;;;;;5012562;28;20211;-84
2023/07/07 10:44:04;;;;;;;3.22;1.50;;;26.10;83.90;;;;;;5013790;28;20681;-85
2023/07/07 10:46:29;;;;;;;2.08;1.33;;;26.10;85.40;;;;;;5013541;28;20179;-87
2023/07/07 10:48:56;;;;;;;2.30;1.30;;;26.20;86.50;;;;;;5012907;28;20272;-82
2023/07/07 10:51:37;;;;;;;2.22;1.10;;;26.30;90.50;;;;;;5014158;28;20186;-83
2023/07/07 10:54:12;;;;;;;2.63;1.40;;;26.20;89.80;;;;;;5017131;28;20164;-84
2023/07/07 10:56:48;;;;;;;2.00;1.20;;;26.30;90.80;;;;;;5013293;28;20179;-85
2023/07/07 10:59:20;;;;;;;2.67;1.30;;;26.30;87.30;;;;;;5015213;28;20185;-88
2023/07/07 11:01:48;;;;;;;2.00;1.30;;;26.40;88.00;;;;;;5013336;28;20215;-85
2023/07/07 11:04:28;;;;;;;2.30;1.15;;;26.40;84.10;;;;;;5013342;28;20273;-87
2023/07/07 11:06:59;;;;;;;2.33;1.33;;;26.50;87.10;;;;;;5014894;28;20174;-86
2023/07/07 11:09:40;;;;;;;2.63;1.35;;;26.50;87.40;;;;;;5014236;28;20190;-86
2023/07/07 11:12:26;;;;;;;2.33;1.45;;;26.50;87.00;;;;;;5016784;28;20217;-84
2023/07/07 11:15:03;;;;;;;1.92;1.25;;;26.60;85.50;;;;;;5016915;28;20229;-85
2023/07/07 11:17:49;;;;;;;3.30;1.52;;;26.60;85.60;;;;;;5016564;28;20183;-86
2023/07/07 11:20:42;;;;;;;2.65;1.08;;;26.70;84.30;;;;;;5017438;28;20202;-85
2023/07/07 11:23:20;;;;;;;2.42;1.38;;;26.80;84.70;;;;;;5016637;28;20259;-84
2023/07/07 11:26:04;;;;;;;1.90;1.10;;;26.80;81.70;;;;;;5018746;28;20581;-83
2023/07/07 11:28:36;;;;;;;2.63;1.40;;;26.70;81.70;;;;;;5016481;28;20167;-83
2023/07/07 11:31:23;;;;;;;3.22;1.27;;;26.60;84.90;;;;;;5016831;28;20175;-85
2023/07/07 11:34:14;;;;;;;1.80;1.38;;;26.50;83.20;;;;;;5016971;28;20164;-85
2023/07/07 11:37:20;;;;;;;4.22;1.30;;;26.50;80.70;;;;;;5016948;28;20606;-85
2023/07/07 11:40:14;;;;;;;3.10;1.40;;;26.60;90.00;;;;;;5016106;28;20513;-83
2023/07/07 11:42:56;;;;;;;3.75;1.42;;;26.70;86.50;;;;;;5015493;28;20207;-87
2023/07/07 11:45:41;;;;;;;2.10;1.40;;;26.80;81.70;;;;;;5015574;28;20175;-84
2023/07/07 11:48:26;;;;;;;2.10;1.33;;;26.90;82.90;;;;;;5029158;28;20535;-83
2023/07/07 11:51:33;;;;;;;1.80;1.15;;;27.10;83.40;;;;;;5018022;28;20183;-83
2023/07/07 11:54:35;;;;;;;2.50;1.42;;;26.90;83.10;;;;;;5036301;28;20167;-85
2023/07/07 11:57:23;;;;;;;3.03;1.40;;;27.00;83.10;;;;;;5018819;28;20621;-84
2023/07/07 12:00:02;;;;;;;3.33;1.30;;;27.20;83.40;;;;;;5036271;28;20163;-85
2023/07/07 12:02:36;;;;;;;3.40;1.40;;;27.10;78.90;;;;;;5036206;28;20228;-85
2023/07/07 12:05:03;;;;;;;2.67;1.30;;;27.20;82.00;;;;;;5035863;28;20245;-88
2023/07/07 12:07:39;;;;;;;2.60;1.40;;;27.30;82.90;;;;;;5018562;28;20186;-87
2023/07/07 12:10:05;;;;;;;2.10;1.15;;;27.40;80.80;;;;;;5018449;28;20545;-85
2023/07/07 12:13:05;;;;;;;3.97;1.52;;;27.40;86.20;;;;;;5018442;28;20174;-84
2023/07/07 12:15:45;;;;;;;2.03;1.30;;;27.60;86.30;;;;;;5021982;28;20626;-86
2023/07/07 12:18:16;;;;;;;2.40;1.25;;;27.60;82.30;;;;;;5018148;28;20174;-86
2023/07/07 12:21:12;;;;;;;2.85;1.45;;;27.60;84.30;;;;;;5020741;28;20633;-83
2023/07/07 12:23:40;;;;;;;3.30;1.30;;;27.60;86.80;;;;;;5015329;28;20179;-87
2023/07/07 12:26:23;;;;;;;2.00;1.10;;;27.70;83.70;;;;;;4998226;28;20245;-83
2023/07/07 12:28:53;;;;;;;3.17;1.40;;;27.80;82.40;;;;;;5015909;28;20488;-83
2023/07/07 12:31:20;;;;;;;2.97;1.25;;;27.80;83.70;;;;;;4997817;28;20517;-83
2023/07/07 12:33:51;;;;;;;4.18;1.25;;;27.80;82.50;;;;;;4998037;28;20183;-85
2023/07/07 12:36:28;;;;;;;2.70;1.27;;;28.00;86.20;;;;;;5015559;28;20151;-85
2023/07/07 12:39:02;;;;;;;3.72;1.30;;;28.00;79.80;;;;;;5007733;28;20765;-83
2023/07/07 12:41:29;;;;;;;1.70;1.20;;;28.00;78.90;;;;;;5031299;28;20194;-86
2023/07/07 12:44:02;;;;;;;3.05;1.23;;;28.10;76.90;;;;;;5018765;28;20273;-88
2023/07/07 12:46:30;;;;;;;2.28;1.35;;;28.10;81.20;;;;;;5018471;28;20174;-85
2023/07/07 12:48:59;;;;;;;3.05;1.33;;;28.20;81.60;;;;;;5017308;28;20238;-84
2023/07/07 12:51:27;;;;;;;2.15;1.10;;;28.20;78.30;;;;;;5017494;28;20214;-85
2023/07/07 12:53:55;;;;;;;2.05;1.30;;;28.30;78.90;;;;;;5017309;28;20185;-88
2023/07/07 12:56:29;;;;;;;1.90;1.33;;;28.40;84.00;;;;;;5018024;28;20170;-90
2023/07/07 12:59:01;;;;;;;3.45;1.50;;;28.50;81.60;;;;;;5017632;28;20181;-92
2023/07/07 13:01:32;;;;;;;3.17;1.38;;;28.60;80.10;;;;;;5035740;28;20213;-84
2023/07/07 13:04:13;;;;;;;2.35;1.50;;;28.60;82.80;;;;;;5021748;28;20204;-83
2023/07/07 13:06:59;;;;;;;1.95;1.30;;;28.50;84.30;;;;;;5034183;28;20183;-94
2023/07/07 13:09:26;;;;;;;2.88;1.40;;;28.50;77.80;;;;;;5032753;28;20184;-87